createdAt,value
2017-08-02T00:00:13.677Z,64.36
2017-08-02T00:01:14.007Z,65.05
2017-08-02T00:02:14.040Z,64.95
2017-08-02T00:03:14.073Z,64.36
2017-08-02T00:04:14.097Z,64.95
2017-08-02T00:05:13.819Z,64.95
2017-08-02T00:06:14.147Z,64.26
2017-08-02T00:07:13.876Z,64.17
2017-08-02T00:08:14.217Z,64.07
2017-08-02T00:09:14.251Z,63.98
2017-08-02T00:10:14.275Z,63.88
2017-08-02T00:11:14.550Z,64.65
2017-08-02T00:12:14.334Z,64.65
2017-08-02T00:13:14.362Z,64.75
2017-08-02T00:14:14.073Z,64.75
2017-08-02T00:15:14.108Z,64.75
2017-08-02T00:16:14.387Z,63.98
2017-08-02T00:17:14.168Z,64.65
2017-08-02T00:18:14.194Z,64.85
2017-08-02T00:19:14.224Z,64.65
2017-08-02T00:20:14.559Z,64.85
2017-08-02T00:21:14.540Z,64.85
2017-08-02T00:22:14.626Z,64.85
2017-08-02T00:23:14.649Z,64.46
2017-08-02T00:24:14.370Z,64.36
2017-08-02T00:25:14.396Z,64.46
2017-08-02T00:26:14.989Z,64.46
2017-08-02T00:27:14.457Z,64.56
2017-08-02T00:28:14.795Z,64.36
2017-08-02T00:29:14.822Z,64.56
2017-08-02T00:30:14.880Z,64.26
2017-08-02T00:31:15.138Z,64.26
2017-08-02T00:32:14.601Z,64.56
2017-08-02T00:33:14.937Z,64.36
2017-08-02T00:34:14.965Z,64.56
2017-08-02T00:35:15.003Z,64.26
2017-08-02T00:36:14.716Z,64.17
2017-08-02T00:37:14.746Z,64.07
2017-08-02T00:38:15.086Z,64.07
2017-08-02T00:39:14.795Z,64.46
2017-08-02T00:40:15.145Z,64.36
2017-08-02T00:41:14.857Z,64.56
2017-08-02T00:42:15.203Z,64.07
2017-08-02T00:43:15.234Z,64.65
2017-08-02T00:44:14.941Z,63.98
2017-08-02T00:45:15.287Z,64.36
2017-08-02T00:46:15.007Z,64.65
2017-08-02T00:47:15.349Z,64.65
2017-08-02T00:48:15.062Z,64.56
2017-08-02T00:49:15.423Z,64.36
2017-08-02T00:50:15.119Z,64.85
2017-08-02T00:51:15.461Z,64.56
2017-08-02T00:52:15.487Z,64.85
2017-08-02T00:53:15.518Z,64.56
2017-08-02T00:54:15.230Z,64.26
2017-08-02T00:55:15.581Z,64.26
2017-08-02T00:56:15.293Z,64.46
2017-08-02T00:57:15.639Z,64.26
2017-08-02T00:58:15.350Z,64.65
2017-08-02T00:59:15.697Z,64.17
2017-08-02T01:00:15.729Z,64.46
2017-08-02T01:01:15.757Z,64.56
2017-08-02T01:02:15.782Z,64.65
2017-08-02T01:03:15.811Z,64.26
2017-08-02T01:04:15.839Z,64.26
2017-08-02T01:05:15.868Z,64.26
2017-08-02T01:06:15.581Z,64.26
2017-08-02T01:07:16.178Z,64.26
2017-08-02T01:08:15.956Z,64.26
2017-08-02T01:09:15.983Z,63.98
2017-08-02T01:10:16.012Z,64.17
2017-08-02T01:11:16.041Z,64.26
2017-08-02T01:12:16.005Z,64.26
2017-08-02T01:13:16.097Z,64.26
2017-08-02T01:14:15.814Z,64.56
2017-08-02T01:15:16.156Z,64.75
2017-08-02T01:16:16.186Z,64.75
2017-08-02T01:17:16.513Z,64.56
2017-08-02T01:18:15.930Z,64.56
2017-08-02T01:19:16.271Z,64.85
2017-08-02T01:20:16.299Z,64.36
2017-08-02T01:21:16.013Z,64.75
2017-08-02T01:22:16.297Z,64.95
2017-08-02T01:23:16.391Z,64.75
2017-08-02T01:24:16.102Z,64.46
2017-08-02T01:25:16.133Z,64.56
2017-08-02T01:26:16.473Z,64.07
2017-08-02T01:27:16.769Z,64.85
2017-08-02T01:28:16.531Z,64.95
2017-08-02T01:29:16.563Z,64.07
2017-08-02T01:30:16.280Z,64.07
2017-08-02T01:31:16.305Z,64.65
2017-08-02T01:32:16.949Z,64.85
2017-08-02T01:33:16.693Z,64.65
2017-08-02T01:34:16.705Z,64.07
2017-08-02T01:35:16.736Z,64.85
2017-08-02T01:36:16.772Z,64.95
2017-08-02T01:37:17.049Z,64.46
2017-08-02T01:38:16.823Z,64.75
2017-08-02T01:39:16.850Z,64.65
2017-08-02T01:40:16.884Z,64.85
2017-08-02T01:41:16.912Z,64.26
2017-08-02T01:42:17.238Z,64.46
2017-08-02T01:43:16.654Z,64.85
2017-08-02T01:44:16.680Z,64.85
2017-08-02T01:45:16.737Z,64.36
2017-08-02T01:46:16.742Z,64.56
2017-08-02T01:47:16.790Z,64.46
2017-08-02T01:48:17.111Z,64.56
2017-08-02T01:49:17.139Z,64.26
2017-08-02T01:50:17.165Z,64.56
2017-08-02T01:51:16.898Z,64.36
2017-08-02T01:52:16.912Z,64.26
2017-08-02T01:53:16.942Z,64.46
2017-08-02T01:54:17.282Z,64.46
2017-08-02T01:55:17.311Z,64.26
2017-08-02T01:56:17.029Z,64.56
2017-08-02T01:57:17.057Z,64.36
2017-08-02T01:58:17.399Z,64.07
2017-08-02T01:59:17.428Z,64.26
2017-08-02T02:00:17.457Z,64.65
2017-08-02T02:01:17.178Z,64.56
2017-08-02T02:02:17.514Z,64.75
2017-08-02T02:03:17.544Z,64.46
2017-08-02T02:04:17.260Z,64.46
2017-08-02T02:05:17.609Z,64.36
2017-08-02T02:06:17.630Z,64.65
2017-08-02T02:07:17.347Z,64.26
2017-08-02T02:08:17.689Z,64.36
2017-08-02T02:09:17.404Z,64.26
2017-08-02T02:10:17.433Z,64.26
2017-08-02T02:11:17.777Z,64.36
2017-08-02T02:12:17.804Z,64.36
2017-08-02T02:13:17.523Z,64.46
2017-08-02T02:14:17.859Z,64.56
2017-08-02T02:15:17.897Z,64.17
2017-08-02T02:16:17.920Z,64.36
2017-08-02T02:17:17.952Z,64.07
2017-08-02T02:18:17.984Z,64.36
2017-08-02T02:19:18.001Z,64.26
2017-08-02T02:20:18.051Z,64.46
2017-08-02T02:21:18.069Z,64.56
2017-08-02T02:22:18.105Z,64.26
2017-08-02T02:23:18.136Z,63.88
2017-08-02T02:24:18.161Z,64.26
2017-08-02T02:25:17.874Z,64.26
2017-08-02T02:26:18.212Z,64.26
2017-08-02T02:27:18.235Z,64.07
2017-08-02T02:28:18.267Z,64.46
2017-08-02T02:29:18.297Z,64.26
2017-08-02T02:30:18.322Z,64.26
2017-08-02T02:31:18.354Z,64.26
2017-08-02T02:32:18.383Z,64.26
2017-08-02T02:33:18.106Z,64.26
2017-08-02T02:34:18.444Z,64.26
2017-08-02T02:35:18.158Z,64.17
2017-08-02T02:36:18.498Z,64.26
2017-08-02T02:37:18.534Z,64.36
2017-08-02T02:38:18.248Z,64.56
2017-08-02T02:39:18.584Z,64.17
2017-08-02T02:40:18.302Z,64.36
2017-08-02T02:41:18.642Z,64.17
2017-08-02T02:42:18.363Z,64.36
2017-08-02T02:43:18.388Z,64.17
2017-08-02T02:44:18.724Z,64.46
2017-08-02T02:45:18.758Z,63.78
2017-08-02T02:46:18.782Z,64.17
2017-08-02T02:47:18.501Z,64.26
2017-08-02T02:48:18.844Z,64.26
2017-08-02T02:49:18.878Z,64.17
2017-08-02T02:50:18.589Z,63.78
2017-08-02T02:51:18.615Z,64.36
2017-08-02T02:52:18.648Z,64.26
2017-08-02T02:53:19.238Z,64.36
2017-08-02T02:54:18.709Z,64.17
2017-08-02T02:55:19.046Z,64.36
2017-08-02T02:56:19.075Z,64.46
2017-08-02T02:57:19.104Z,64.17
2017-08-02T02:58:19.125Z,64.17
2017-08-02T02:59:19.161Z,64.17
2017-08-02T03:00:18.882Z,64.17
2017-08-02T03:01:19.220Z,63.98
2017-08-02T03:02:19.240Z,63.98
2017-08-02T03:03:19.208Z,64.17
2017-08-02T03:04:19.306Z,64.36
2017-08-02T03:05:19.020Z,64.36
2017-08-02T03:06:19.365Z,64.36
2017-08-02T03:07:19.080Z,64.36
2017-08-02T03:08:19.362Z,64.07
2017-08-02T03:09:19.141Z,64.26
2017-08-02T03:10:19.468Z,64.26
2017-08-02T03:11:19.506Z,64.36
2017-08-02T03:12:19.531Z,64.26
2017-08-02T03:13:19.819Z,64.26
2017-08-02T03:14:19.593Z,64.26
2017-08-02T03:15:19.318Z,63.88
2017-08-02T03:16:19.340Z,64.23
2017-08-02T03:17:19.369Z,63.88
2017-08-02T03:18:19.956Z,63.65
2017-08-02T03:19:19.735Z,64.14
2017-08-02T03:20:19.451Z,64.26
2017-08-02T03:21:19.484Z,64.36
2017-08-02T03:22:19.508Z,63.85
2017-08-02T03:23:20.099Z,64.17
2017-08-02T03:24:19.569Z,64.46
2017-08-02T03:25:19.602Z,64.04
2017-08-02T03:26:19.627Z,64.43
2017-08-02T03:27:19.972Z,64.56
2017-08-02T03:28:20.250Z,64.26
2017-08-02T03:29:20.017Z,64.14
2017-08-02T03:30:19.744Z,64.33
2017-08-02T03:31:19.775Z,64.33
2017-08-02T03:32:20.108Z,64.14
2017-08-02T03:33:20.447Z,64.33
2017-08-02T03:34:20.170Z,64.33
2017-08-02T03:35:20.197Z,64.33
2017-08-02T03:36:20.228Z,64.23
2017-08-02T03:37:20.260Z,64.04
2017-08-02T03:38:20.545Z,64.23
2017-08-02T03:39:20.315Z,64.33
2017-08-02T03:40:20.032Z,64.43
2017-08-02T03:41:20.060Z,64.82
2017-08-02T03:42:20.393Z,64.62
2017-08-02T03:43:20.677Z,64.33
2017-08-02T03:44:20.468Z,64.33
2017-08-02T03:45:20.484Z,64.14
2017-08-02T03:46:20.517Z,64.43
2017-08-02T03:47:20.545Z,64.33
2017-08-02T03:48:20.869Z,64.53
2017-08-02T03:49:20.598Z,64.43
2017-08-02T03:50:20.321Z,64.43
2017-08-02T03:51:20.660Z,64.23
2017-08-02T03:52:20.372Z,64.43
2017-08-02T03:53:20.709Z,64.62
2017-08-02T03:54:20.746Z,64.62
2017-08-02T03:55:20.778Z,64.43
2017-08-02T03:56:20.807Z,64.53
2017-08-02T03:57:20.832Z,64.53
2017-08-02T03:58:21.116Z,64.33
2017-08-02T03:59:20.578Z,64.53
2017-08-02T04:00:20.917Z,64.33
2017-08-02T04:01:20.952Z,64.43
2017-08-02T04:02:20.981Z,64.82
2017-08-02T04:03:21.005Z,64.72
2017-08-02T04:04:20.721Z,64.23
2017-08-02T04:05:20.747Z,64.43
2017-08-02T04:06:20.776Z,64.23
2017-08-02T04:07:21.117Z,64.62
2017-08-02T04:08:21.157Z,64.62
2017-08-02T04:09:21.173Z,64.53
2017-08-02T04:10:21.203Z,64.72
2017-08-02T04:11:21.228Z,64.62
2017-08-02T04:12:21.265Z,64.23
2017-08-02T04:13:21.294Z,64.62
2017-08-02T04:14:21.322Z,64.33
2017-08-02T04:15:21.351Z,64.53
2017-08-02T04:16:21.065Z,64.23
2017-08-02T04:17:21.417Z,64.82
2017-08-02T04:18:21.437Z,64.62
2017-08-02T04:19:21.465Z,64.23
2017-08-02T04:20:21.495Z,64.53
2017-08-02T04:21:21.520Z,64.53
2017-08-02T04:22:21.233Z,64.62
2017-08-02T04:23:21.577Z,64.23
2017-08-02T04:24:21.606Z,64.14
2017-08-02T04:25:21.632Z,64.23
2017-08-02T04:26:21.662Z,64.33
2017-08-02T04:27:21.380Z,64.14
2017-08-02T04:28:21.416Z,64.23
2017-08-02T04:29:21.438Z,64.33
2017-08-02T04:30:21.468Z,64.23
2017-08-02T04:31:21.809Z,64.23
2017-08-02T04:32:21.527Z,64.23
2017-08-02T04:33:21.866Z,64.23
2017-08-02T04:34:21.895Z,64.23
2017-08-02T04:35:21.613Z,63.95
2017-08-02T04:36:21.953Z,64.33
2017-08-02T04:37:21.989Z,64.53
2017-08-02T04:38:22.010Z,64.33
2017-08-02T04:39:22.041Z,64.72
2017-08-02T04:40:22.064Z,64.23
2017-08-02T04:41:22.100Z,64.33
2017-08-02T04:42:22.125Z,64.72
2017-08-02T04:43:21.847Z,64.53
2017-08-02T04:44:22.183Z,64.43
2017-08-02T04:45:21.895Z,64.23
2017-08-02T04:46:21.937Z,64.14
2017-08-02T04:47:22.269Z,64.23
2017-08-02T04:48:22.297Z,64.23
2017-08-02T04:49:22.019Z,64.43
2017-08-02T04:50:22.348Z,63.95
2017-08-02T04:51:22.073Z,64.33
2017-08-02T04:52:22.414Z,64.23
2017-08-02T04:53:22.438Z,64.33
2017-08-02T04:54:22.487Z,64.33
2017-08-02T04:55:22.500Z,64.23
2017-08-02T04:56:22.521Z,64.14
2017-08-02T04:57:22.554Z,63.95
2017-08-02T04:58:22.270Z,64.14
2017-08-02T04:59:22.892Z,64.04
2017-08-02T05:00:22.641Z,64.33
2017-08-02T05:01:22.670Z,63.75
2017-08-02T05:02:22.386Z,64.04
2017-08-02T05:03:22.412Z,64.04
2017-08-02T05:04:22.745Z,64.14
2017-08-02T05:05:22.473Z,64.14
2017-08-02T05:06:22.823Z,64.04
2017-08-02T05:07:22.529Z,64.04
2017-08-02T05:08:22.875Z,63.85
2017-08-02T05:09:22.847Z,64.04
2017-08-02T05:10:22.931Z,63.95
2017-08-02T05:11:22.644Z,63.95
2017-08-02T05:12:22.986Z,64.04
2017-08-02T05:13:23.015Z,64.33
2017-08-02T05:14:23.339Z,63.95
2017-08-02T05:15:23.075Z,64.14
2017-08-02T05:16:22.788Z,63.95
2017-08-02T05:17:22.826Z,64.23
2017-08-02T05:18:23.158Z,64.23
2017-08-02T05:19:23.439Z,64.23
2017-08-02T05:20:22.903Z,64.23
2017-08-02T05:21:22.933Z,64.33
2017-08-02T05:22:22.974Z,64.33
2017-08-02T05:23:23.317Z,64.14
2017-08-02T05:24:23.327Z,64.23
2017-08-02T05:25:23.361Z,64.14
2017-08-02T05:26:23.078Z,64.43
2017-08-02T05:27:23.418Z,64.14
2017-08-02T05:28:23.442Z,64.23
2017-08-02T05:29:23.722Z,64.23
2017-08-02T05:30:23.508Z,64.2
2017-08-02T05:31:23.533Z,64.3
2017-08-02T05:32:23.262Z,64.14
2017-08-02T05:33:23.275Z,64.23
2017-08-02T05:34:23.559Z,64.04
2017-08-02T05:35:23.649Z,64.23
2017-08-02T05:36:23.679Z,64.04
2017-08-02T05:37:23.704Z,64.11
2017-08-02T05:38:23.734Z,64.2
2017-08-02T05:39:23.702Z,64.2
2017-08-02T05:40:23.477Z,64.4
2017-08-02T05:41:23.816Z,64.14
2017-08-02T05:42:23.852Z,64.3
2017-08-02T05:43:23.879Z,64.53
2017-08-02T05:44:23.843Z,63.95
2017-08-02T05:45:23.933Z,64.14
2017-08-02T05:46:23.966Z,64.33
2017-08-02T05:47:23.998Z,64.3
2017-08-02T05:48:23.715Z,64.14
2017-08-02T05:49:24.040Z,63.95
2017-08-02T05:50:24.085Z,63.75
2017-08-02T05:51:23.788Z,64.14
2017-08-02T05:52:24.138Z,64.14
2017-08-02T05:53:23.854Z,63.75
2017-08-02T05:54:24.191Z,64.14
2017-08-02T05:55:23.907Z,63.95
2017-08-02T05:56:24.249Z,64.14
2017-08-02T05:57:24.291Z,63.65
2017-08-02T05:58:24.307Z,64.04
2017-08-02T05:59:24.634Z,64.14
2017-08-02T06:00:24.357Z,64.14
2017-08-02T06:01:24.106Z,63.95
2017-08-02T06:02:24.111Z,64.04
2017-08-02T06:03:24.135Z,63.95
2017-08-02T06:04:24.467Z,63.91
2017-08-02T06:05:24.510Z,63.75
2017-08-02T06:06:24.533Z,63.95
2017-08-02T06:07:24.563Z,64.14
2017-08-02T06:08:24.595Z,64.14
2017-08-02T06:09:24.929Z,63.95
2017-08-02T06:10:24.652Z,63.62
2017-08-02T06:11:24.681Z,64.04
2017-08-02T06:12:24.711Z,64.01
2017-08-02T06:13:24.743Z,64.43
2017-08-02T06:14:25.068Z,64.04
2017-08-02T06:15:24.489Z,64.11
2017-08-02T06:16:24.830Z,63.85
2017-08-02T06:17:24.859Z,63.75
2017-08-02T06:18:24.888Z,63.75
2017-08-02T06:19:25.167Z,63.95
2017-08-02T06:20:24.937Z,64.23
2017-08-02T06:21:24.656Z,64.14
2017-08-02T06:22:25.007Z,64.14
2017-08-02T06:23:25.032Z,64.14
2017-08-02T06:24:24.743Z,64.14
2017-08-02T06:25:25.078Z,63.95
2017-08-02T06:26:25.117Z,64.04
2017-08-02T06:27:25.160Z,63.65
2017-08-02T06:28:25.171Z,64.33
2017-08-02T06:29:25.211Z,64.14
2017-08-02T06:30:25.229Z,64.14
2017-08-02T06:31:25.258Z,63.85
2017-08-02T06:32:24.972Z,64.04
2017-08-02T06:33:25.317Z,64.14
2017-08-02T06:34:25.056Z,64.14
2017-08-02T06:35:25.385Z,64.14
2017-08-02T06:36:25.405Z,63.75
2017-08-02T06:37:25.435Z,64.04
2017-08-02T06:38:25.455Z,64.43
2017-08-02T06:39:25.179Z,64.23
2017-08-02T06:40:25.517Z,63.95
2017-08-02T06:41:25.240Z,64.04
2017-08-02T06:42:25.579Z,64.33
2017-08-02T06:43:25.298Z,64.33
2017-08-02T06:44:25.634Z,64.33
2017-08-02T06:45:25.345Z,64.14
2017-08-02T06:46:25.724Z,64.43
2017-08-02T06:47:25.407Z,64.43
2017-08-02T06:48:25.436Z,64.82
2017-08-02T06:49:25.460Z,64.23
2017-08-02T06:50:25.498Z,64.23
2017-08-02T06:51:25.522Z,64.23
2017-08-02T06:52:25.552Z,64.14
2017-08-02T06:53:25.584Z,64.14
2017-08-02T06:54:25.608Z,64.04
2017-08-02T06:55:25.949Z,64.14
2017-08-02T06:56:25.670Z,64.43
2017-08-02T06:57:25.695Z,64.17
2017-08-02T06:58:26.032Z,64.26
2017-08-02T06:59:25.753Z,64.33
2017-08-02T07:00:26.092Z,64.26
2017-08-02T07:01:26.134Z,64.23
2017-08-02T07:02:25.838Z,64.07
2017-08-02T07:03:26.173Z,64.17
2017-08-02T07:04:25.897Z,64.07
2017-08-02T07:05:26.233Z,64.07
2017-08-02T07:06:26.267Z,64.46
2017-08-02T07:07:25.982Z,64.85
2017-08-02T07:08:26.007Z,64.56
2017-08-02T07:09:26.354Z,64.56
2017-08-02T07:10:26.382Z,64.56
2017-08-02T07:11:26.100Z,64.17
2017-08-02T07:12:26.128Z,64.46
2017-08-02T07:13:26.157Z,64.36
2017-08-02T07:14:26.190Z,64.36
2017-08-02T07:15:26.531Z,64.46
2017-08-02T07:16:26.555Z,64.46
2017-08-02T07:17:26.588Z,64.46
2017-08-02T07:18:26.328Z,64.95
2017-08-02T07:19:26.641Z,64.46
2017-08-02T07:20:26.363Z,64.46
2017-08-02T07:21:26.702Z,64.46
2017-08-02T07:22:26.731Z,64.46
2017-08-02T07:23:26.758Z,64.36
2017-08-02T07:24:26.477Z,64.85
2017-08-02T07:25:26.818Z,64.65
2017-08-02T07:26:26.534Z,64.75
2017-08-02T07:27:26.564Z,64.07
2017-08-02T07:28:26.904Z,64.75
2017-08-02T07:29:26.621Z,64.56
2017-08-02T07:30:26.970Z,64.85
2017-08-02T07:31:26.683Z,64.85
2017-08-02T07:32:26.708Z,64.46
2017-08-02T07:33:27.049Z,65.14
2017-08-02T07:34:27.079Z,64.36
2017-08-02T07:35:27.106Z,65.24
2017-08-02T07:36:26.823Z,65.14
2017-08-02T07:37:26.851Z,64.36
2017-08-02T07:38:27.193Z,65.24
2017-08-02T07:39:27.222Z,65.05
2017-08-02T07:40:27.255Z,64.65
2017-08-02T07:41:27.282Z,65.05
2017-08-02T07:42:27.308Z,64.56
2017-08-02T07:43:27.027Z,65.63
2017-08-02T07:44:27.366Z,65.05
2017-08-02T07:45:27.416Z,64.85
2017-08-02T07:46:27.111Z,65.14
2017-08-02T07:47:27.457Z,65.33
2017-08-02T07:48:27.170Z,65.24
2017-08-02T07:49:27.508Z,65.14
2017-08-02T07:50:27.536Z,64.95
2017-08-02T07:51:27.255Z,65.33
2017-08-02T07:52:27.596Z,65.53
2017-08-02T07:53:27.626Z,65.63
2017-08-02T07:54:27.662Z,65.63
2017-08-02T07:55:27.979Z,65.72
2017-08-02T07:56:27.711Z,65.92
2017-08-02T07:57:27.749Z,65.72
2017-08-02T07:58:27.773Z,65.05
2017-08-02T07:59:27.803Z,65.24
2017-08-02T08:00:27.811Z,65.33
2017-08-02T08:01:27.543Z,65.53
2017-08-02T08:02:27.888Z,65.05
2017-08-02T08:03:27.915Z,64.95
2017-08-02T08:04:27.945Z,65.24
2017-08-02T08:05:27.964Z,65.33
2017-08-02T08:06:28.003Z,65.05
2017-08-02T08:07:28.032Z,65.33
2017-08-02T08:08:27.752Z,65.53
2017-08-02T08:09:28.093Z,65.53
2017-08-02T08:10:28.417Z,65.05
2017-08-02T08:11:27.838Z,65.33
2017-08-02T08:12:28.177Z,65.05
2017-08-02T08:13:28.210Z,65.05
2017-08-02T08:14:28.234Z,65.24
2017-08-02T08:15:28.558Z,65.05
2017-08-02T08:16:28.296Z,65.05
2017-08-02T08:17:28.009Z,65.05
2017-08-02T08:18:28.350Z,64.95
2017-08-02T08:19:28.386Z,65.24
2017-08-02T08:20:28.345Z,64.95
2017-08-02T08:21:28.436Z,65.24
2017-08-02T08:22:28.462Z,65.24
2017-08-02T08:23:28.186Z,65.63
2017-08-02T08:24:28.523Z,65.53
2017-08-02T08:25:28.798Z,65.92
2017-08-02T08:26:28.580Z,65.14
2017-08-02T08:27:28.617Z,65.05
2017-08-02T08:28:28.638Z,64.85
2017-08-02T08:29:28.674Z,65.24
2017-08-02T08:30:28.994Z,64.85
2017-08-02T08:31:28.737Z,65.72
2017-08-02T08:32:28.756Z,65.63
2017-08-02T08:33:28.789Z,66.02
2017-08-02T08:34:28.823Z,65.72
2017-08-02T08:35:29.095Z,65.05
2017-08-02T08:36:28.568Z,65.05
2017-08-02T08:37:28.592Z,65.33
2017-08-02T08:38:28.618Z,65.72
2017-08-02T08:39:28.647Z,66.02
2017-08-02T08:40:28.974Z,66.21
2017-08-02T08:41:29.020Z,65.75
2017-08-02T08:42:29.041Z,65.92
2017-08-02T08:43:29.074Z,65.95
2017-08-02T08:44:29.103Z,66.05
2017-08-02T08:45:29.119Z,66.24
2017-08-02T08:46:29.164Z,65.75
2017-08-02T08:47:29.192Z,65.75
2017-08-02T08:48:28.906Z,65.85
2017-08-02T08:49:28.939Z,65.95
2017-08-02T08:50:29.527Z,66.14
2017-08-02T08:51:28.992Z,65.66
2017-08-02T08:52:29.025Z,66.14
2017-08-02T08:53:29.054Z,65.75
2017-08-02T08:54:29.083Z,65.95
2017-08-02T08:55:29.111Z,66.05
2017-08-02T08:56:29.447Z,65.85
2017-08-02T08:57:29.163Z,65.56
2017-08-02T08:58:29.510Z,65.56
2017-08-02T08:59:29.540Z,65.85
2017-08-02T09:00:29.568Z,65.85
2017-08-02T09:01:29.597Z,65.27
2017-08-02T09:02:29.634Z,64.98
2017-08-02T09:03:29.666Z,65.08
2017-08-02T09:04:29.371Z,65.27
2017-08-02T09:05:29.430Z,65.08
2017-08-02T09:06:29.765Z,64.49
2017-08-02T09:07:29.773Z,65.08
2017-08-02T09:08:29.807Z,65.27
2017-08-02T09:09:29.517Z,65.08
2017-08-02T09:10:29.851Z,64.88
2017-08-02T09:11:29.585Z,64.49
2017-08-02T09:12:29.921Z,64.98
2017-08-02T09:13:29.642Z,64.88
2017-08-02T09:14:29.978Z,64.59
2017-08-02T09:15:30.018Z,64.91
2017-08-02T09:16:29.724Z,64.43
2017-08-02T09:17:30.075Z,64.78
2017-08-02T09:18:29.786Z,64.11
2017-08-02T09:19:30.126Z,64.72
2017-08-02T09:20:30.160Z,64.62
2017-08-02T09:21:29.870Z,64.53
2017-08-02T09:22:29.905Z,64.33
2017-08-02T09:23:29.931Z,63.94
2017-08-02T09:24:29.961Z,64.23
2017-08-02T09:25:29.987Z,63.84
2017-08-02T09:26:30.329Z,63.36
2017-08-02T09:27:30.362Z,63.26
2017-08-02T09:28:30.386Z,63.36
2017-08-02T09:29:30.414Z,63.65
2017-08-02T09:30:30.140Z,63.36
2017-08-02T09:31:30.164Z,62.87
2017-08-02T09:32:30.506Z,62.87
2017-08-02T09:33:30.223Z,62.87
2017-08-02T09:34:30.566Z,62.87
2017-08-02T09:35:30.592Z,63.17
2017-08-02T09:36:30.625Z,63.07
2017-08-02T09:37:30.648Z,62.87
2017-08-02T09:38:30.683Z,63.17
2017-08-02T09:39:30.398Z,62.1
2017-08-02T09:40:30.740Z,61.9
2017-08-02T09:41:31.078Z,62.38
2017-08-02T09:42:30.510Z,62.29
2017-08-02T09:43:30.517Z,62.19
2017-08-02T09:44:30.860Z,62.19
2017-08-02T09:45:30.886Z,62
2017-08-02T09:46:31.216Z,61.9
2017-08-02T09:47:30.937Z,62
2017-08-02T09:48:30.665Z,61.61
2017-08-02T09:49:30.692Z,61.61
2017-08-02T09:50:31.032Z,61.8
2017-08-02T09:51:31.319Z,61.9
2017-08-02T09:52:31.094Z,61.12
2017-08-02T09:53:31.131Z,61.22
2017-08-02T09:54:31.157Z,61.12
2017-08-02T09:55:31.184Z,61.22
2017-08-02T09:56:31.202Z,61.12
2017-08-02T09:57:31.240Z,60.96
2017-08-02T09:58:31.270Z,61.35
2017-08-02T09:59:31.298Z,61.54
2017-08-02T10:00:31.327Z,61.35
2017-08-02T10:01:31.661Z,60.96
2017-08-02T10:02:31.388Z,60.77
2017-08-02T10:03:31.114Z,60.86
2017-08-02T10:04:31.135Z,60.96
2017-08-02T10:05:31.477Z,61.05
2017-08-02T10:06:31.500Z,60.47
2017-08-02T10:07:31.543Z,60.67
2017-08-02T10:08:31.259Z,60.47
2017-08-02T10:09:31.282Z,60.57
2017-08-02T10:10:31.307Z,60.77
2017-08-02T10:11:31.958Z,60.38
2017-08-02T10:12:31.686Z,60.6
2017-08-02T10:13:31.716Z,60.5
2017-08-02T10:14:31.744Z,60.21
2017-08-02T10:15:31.777Z,60.02
2017-08-02T10:16:31.753Z,59.92
2017-08-02T10:17:31.845Z,60.21
2017-08-02T10:18:31.863Z,60.02
2017-08-02T10:19:31.884Z,59.92
2017-08-02T10:20:31.932Z,59.92
2017-08-02T10:21:31.938Z,59.43
2017-08-02T10:22:31.984Z,59.92
2017-08-02T10:23:32.013Z,59.92
2017-08-02T10:24:32.044Z,59.33
2017-08-02T10:25:32.073Z,59.43
2017-08-02T10:26:32.402Z,59.43
2017-08-02T10:27:32.143Z,59.14
2017-08-02T10:28:32.155Z,59.05
2017-08-02T10:29:32.205Z,59.63
2017-08-02T10:30:32.222Z,59.14
2017-08-02T10:31:32.550Z,59.43
2017-08-02T10:32:32.285Z,59.33
2017-08-02T10:33:31.995Z,59.33
2017-08-02T10:34:32.343Z,59.33
2017-08-02T10:35:32.372Z,58.95
2017-08-02T10:36:32.082Z,59.14
2017-08-02T10:37:32.432Z,58.65
2017-08-02T10:38:32.458Z,58.95
2017-08-02T10:39:32.493Z,58.95
2017-08-02T10:40:32.529Z,58.85
2017-08-02T10:41:32.554Z,58.75
2017-08-02T10:42:32.270Z,58.65
2017-08-02T10:43:32.612Z,58.56
2017-08-02T10:44:32.330Z,58.65
2017-08-02T10:45:32.667Z,58.75
2017-08-02T10:46:32.392Z,58.87
2017-08-02T10:47:32.414Z,58.65
2017-08-02T10:48:32.762Z,59.46
2017-08-02T10:49:32.792Z,58.95
2017-08-02T10:50:32.515Z,58.97
2017-08-02T10:51:32.847Z,58.95
2017-08-02T10:52:32.878Z,58.46
2017-08-02T10:53:32.912Z,58.56
2017-08-02T10:54:32.939Z,58.36
2017-08-02T10:55:32.965Z,58.95
2017-08-02T10:56:32.999Z,58.56
2017-08-02T10:57:32.719Z,58.26
2017-08-02T10:58:33.059Z,58.65
2017-08-02T10:59:33.093Z,58.95
2017-08-02T11:00:33.134Z,58.97
2017-08-02T11:01:32.838Z,58.49
2017-08-02T11:02:33.177Z,58.95
2017-08-02T11:03:33.216Z,59.05
2017-08-02T11:04:33.233Z,58.85
2017-08-02T11:05:32.957Z,58.85
2017-08-02T11:06:33.309Z,58.87
2017-08-02T11:07:33.332Z,58.75
2017-08-02T11:08:33.358Z,58.49
2017-08-02T11:09:33.392Z,58.59
2017-08-02T11:10:33.425Z,58.1
2017-08-02T11:11:33.135Z,57.9
2017-08-02T11:12:33.483Z,57.9
2017-08-02T11:13:33.504Z,58.2
2017-08-02T11:14:33.229Z,57.61
2017-08-02T11:15:33.262Z,57.61
2017-08-02T11:16:33.291Z,57.42
2017-08-02T11:17:33.931Z,57.32
2017-08-02T11:18:33.665Z,57.42
2017-08-02T11:19:33.694Z,57.54
2017-08-02T11:20:33.718Z,57.71
2017-08-02T11:21:33.758Z,57.22
2017-08-02T11:22:34.035Z,57.71
2017-08-02T11:23:33.815Z,57.15
2017-08-02T11:24:33.845Z,57.22
2017-08-02T11:25:33.873Z,57.22
2017-08-02T11:26:33.595Z,56.96
2017-08-02T11:27:34.198Z,57.51
2017-08-02T11:28:33.966Z,57.03
2017-08-02T11:29:33.680Z,57.32
2017-08-02T11:30:34.026Z,57.32
2017-08-02T11:31:34.055Z,57.71
2017-08-02T11:32:34.387Z,57.81
2017-08-02T11:33:33.815Z,56.93
2017-08-02T11:34:34.158Z,57.03
2017-08-02T11:35:33.866Z,57.51
2017-08-02T11:36:34.206Z,57.42
2017-08-02T11:37:34.223Z,57.32
2017-08-02T11:38:34.271Z,57.71
2017-08-02T11:39:34.304Z,56.93
2017-08-02T11:40:34.330Z,57.03
2017-08-02T11:41:34.372Z,57.42
2017-08-02T11:42:34.379Z,56.84
2017-08-02T11:43:34.420Z,57.15
2017-08-02T11:44:34.137Z,56.84
2017-08-02T11:45:34.170Z,57.42
2017-08-02T11:46:34.200Z,56.84
2017-08-02T11:47:34.529Z,56.05
2017-08-02T11:48:34.578Z,56.54
2017-08-02T11:49:34.599Z,56.25
2017-08-02T11:50:34.629Z,55.99
2017-08-02T11:51:34.660Z,55.99
2017-08-02T11:52:35.009Z,56.05
2017-08-02T11:53:34.713Z,56.09
2017-08-02T11:54:34.749Z,55.6
2017-08-02T11:55:34.471Z,55.89
2017-08-02T11:56:34.504Z,56.18
2017-08-02T11:57:35.144Z,55.69
2017-08-02T11:58:34.561Z,55.69
2017-08-02T11:59:34.915Z,55.6
2017-08-02T12:00:34.938Z,55.79
2017-08-02T12:01:34.972Z,55.6
2017-08-02T12:02:34.685Z,54.65
2017-08-02T12:03:35.030Z,54.46
2017-08-02T12:04:34.759Z,54.19
2017-08-02T12:05:35.087Z,54.28
2017-08-02T12:06:35.115Z,53.99
2017-08-02T12:07:35.159Z,53.5
2017-08-02T12:08:35.188Z,53.31
2017-08-02T12:09:35.234Z,53.63
2017-08-02T12:10:35.243Z,53.6
2017-08-02T12:11:35.280Z,53.14
2017-08-02T12:12:35.312Z,53.6
2017-08-02T12:13:35.350Z,53.41
2017-08-02T12:14:35.059Z,53.34
2017-08-02T12:15:35.092Z,53.14
2017-08-02T12:16:35.128Z,52.17
2017-08-02T12:17:35.461Z,52.17
2017-08-02T12:18:35.498Z,51.97
2017-08-02T12:19:35.215Z,52.39
2017-08-02T12:20:35.559Z,51.7
2017-08-02T12:21:35.276Z,51.41
2017-08-02T12:22:35.309Z,51.9
2017-08-02T12:23:35.652Z,52
2017-08-02T12:24:35.687Z,51.7
2017-08-02T12:25:35.716Z,51.02
2017-08-02T12:26:35.747Z,51.21
2017-08-02T12:27:35.469Z,50.92
2017-08-02T12:28:35.814Z,50.82
2017-08-02T12:29:35.842Z,50.82
2017-08-02T12:30:35.564Z,50.73
2017-08-02T12:31:35.913Z,51.02
2017-08-02T12:32:35.936Z,51.61
2017-08-02T12:33:35.973Z,50.92
2017-08-02T12:34:36.002Z,51.21
2017-08-02T12:35:36.036Z,51.34
2017-08-02T12:36:36.065Z,51.24
2017-08-02T12:37:36.108Z,50.56
2017-08-02T12:38:36.124Z,49.49
2017-08-02T12:39:36.163Z,49.8
2017-08-02T12:40:36.192Z,50.1
2017-08-02T12:41:36.234Z,49.51
2017-08-02T12:42:36.253Z,49.53
2017-08-02T12:43:36.280Z,49.04
2017-08-02T12:44:36.320Z,48.94
2017-08-02T12:45:36.040Z,48.36
2017-08-02T12:46:36.394Z,48.85
2017-08-02T12:47:36.108Z,48.94
2017-08-02T12:48:36.447Z,48.16
2017-08-02T12:49:36.483Z,48.07
2017-08-02T12:50:36.512Z,48.46
2017-08-02T12:51:36.237Z,48.36
2017-08-02T12:52:36.262Z,48.26
2017-08-02T12:53:36.911Z,47.97